F/V Anna Mamm Mari — FOHD — position and weather

sailwx.info

Track history (hours):
 
Tides and Currents Weather Stations Pressure Air Temp Water Temp Dewpoint Dewpoint Depression Visibility Wind Speed Wind Dir Waves Ship Positions

F/V Anna Mamm Mari

Last reported at 2016-Dec-11 02:33 UTC. Time now 2016-Dec-11 12:03 UTC.
Position N 46°12' W 002°09'.

Length 17 m.

Type: Fishing. MMSI: 228393000.

Date/timePositionNaut miles runAvg speedWind from/ knotsBaromVisibWave heightAir tempDewpointWater temp
2016-Dec-11 02:33N 46°12' W 002°09'1 0.2
2016-Dec-10 22:29N 46°12' W 002°07'0 0.0
2016-Dec-10 21:12N 46°12' W 002°07'0 0.1
2016-Dec-10 20:32N 46°12' W 002°08'0 0.1
2016-Dec-10 19:29N 46°12' W 002°08'0 0.1
2016-Dec-10 17:19N 46°12' W 002°08'1 1.7
2016-Dec-10 16:32N 46°11' W 002°09'1 0.7
2016-Dec-10 15:30N 46°10' W 002°10'3 0.8
2016-Dec-10 12:07N 46°12' W 002°07'2 1.1
2016-Dec-10 10:33N 46°12' W 002°09'2 0.9
2016-Dec-10 08:31N 46°13' W 002°07'2 0.7
2016-Dec-10 05:27N 46°11' W 002°08'0 0.2
2016-Dec-10 03:17N 46°11' W 002°07'0 0.5
2016-Dec-10 02:28N 46°11' W 002°07'0 0.1
2016-Dec-10 01:30N 46°11' W 002°07'0 0.1
2016-Dec-09 23:33N 46°11' W 002°06'0 0.0
2016-Dec-09 11:26N 46°11' W 002°07'1 0.7
2016-Dec-09 10:16N 46°12' W 002°07'1 0.6
2016-Dec-09 09:07N 46°11' W 002°07'1 2.4
2016-Dec-09 08:33N 46°13' W 002°07'1 0.9
2016-Dec-09 07:24N 46°12' W 002°08'1 0.4
2016-Dec-09 05:30N 46°12' W 002°07'0 0.4
2016-Dec-09 04:33N 46°12' W 002°07'1 1.4
2016-Dec-09 03:34N 46°11' W 002°07'0 0.3
2016-Dec-09 02:33N 46°11' W 002°07'3 3.3
2016-Dec-09 01:33N 46°14' W 002°05'8 7.8
2016-Dec-09 00:33N 46°20' W 001°58'7 7.5
2016-Dec-08 23:33N 46°25' W 001°51'5 5.1
2016-Dec-08 22:33N 46°30' W 001°47'0 0.0
2016-Dec-08 21:33N 46°30' W 001°47'0 0.0
2016-Dec-08 20:33N 46°30' W 001°47'0 0.0
2016-Dec-08 19:33N 46°30' W 001°47'0 0.0
2016-Dec-08 18:33N 46°30' W 001°47'0 0.1
2016-Dec-08 17:33N 46°30' W 001°47'4 3.6
2016-Dec-08 16:33N 46°27' W 001°49'9 8.8
2016-Dec-08 15:34N 46°20' W 001°58'11 0.4
2016-Dec-07 10:15N 46°12' W 002°08'0 0.1
2016-Dec-07 08:16N 46°12' W 002°09'1 0.1
2016-Dec-06 21:33N 46°11' W 002°07'0 0.0
2016-Dec-06 20:33N 46°11' W 002°07'14 0.7
2016-Dec-06 02:12N 46°21' W 001°53'6 8.6
2016-Dec-06 01:33N 46°26' W 001°49'4 4.1
2016-Dec-06 00:34N 46°30' W 001°47'0 0.0
2016-Dec-05 23:33N 46°30' W 001°47'0 0.1
2016-Dec-05 22:33N 46°30' W 001°48'0 0.0
2016-Dec-05 21:33N 46°30' W 001°48'0 0.0
2016-Dec-05 20:33N 46°30' W 001°48'0 0.0
2016-Dec-05 19:33N 46°30' W 001°48'0 0.0
2016-Dec-05 18:33N 46°30' W 001°48'0 0.0
2016-Dec-05 17:33N 46°30' W 001°48'0 0.0
2016-Dec-05 16:33N 46°30' W 001°48'0 0.0
2016-Dec-05 15:33N 46°30' W 001°48'0 0.0
2016-Dec-05 14:33N 46°30' W 001°48'0 0.0
2016-Dec-05 13:33N 46°30' W 001°48'0 0.0
2016-Dec-05 12:33N 46°30' W 001°48'0 0.0
2016-Dec-05 11:33N 46°30' W 001°48'0 0.0
2016-Dec-05 10:33N 46°30' W 001°48'0 0.0
2016-Dec-05 09:28N 46°30' W 001°48'0 0.0
2016-Dec-05 08:33N 46°30' W 001°48'0 0.0
2016-Dec-05 07:33N 46°30' W 001°48'0 0.0
2016-Dec-05 06:33N 46°30' W 001°48'0 0.0
2016-Dec-05 05:33N 46°30' W 001°48'0 0.0
2016-Dec-05 04:33N 46°30' W 001°48'0 0.0
2016-Dec-05 03:33N 46°30' W 001°48'0 0.0
2016-Dec-05 02:33N 46°30' W 001°48'0 0.0
2016-Dec-05 01:34N 46°30' W 001°48'0 0.0
2016-Dec-05 00:33N 46°30' W 001°48'0 0.0
2016-Dec-04 23:33N 46°30' W 001°48'0 0.1
2016-Dec-04 22:34N 46°30' W 001°47'0 0.2
2016-Dec-04 21:33N 46°30' W 001°47'3 3.1
2016-Dec-04 20:33N 46°27' W 001°49'9 8.8
2016-Dec-04 19:33N 46°21' W 001°58'  
2016-Dec-02 07:29N 46°12' W 002°09'1 0.1
2016-Dec-01 22:03N 46°11' W 002°10'0 0.0
2016-Dec-01 21:31N 46°11' W 002°10'0 0.0
2016-Dec-01 20:14N 46°11' W 002°10'0 0.0
2016-Dec-01 19:28N 46°11' W 002°10'  
Track history (hours):
 
Tides and Currents Weather Stations Pressure Air Temp Water Temp Dewpoint Dewpoint Depression Visibility Wind Speed Wind Dir Waves Ship Positions

F/V Anna Mamm Mari

Last reported at 2016-Dec-11 02:33 UTC. Time now 2016-Dec-11 12:03 UTC.
Position N 46°12' W 002°09'.

Length 17 m.

Type: Fishing. MMSI: 228393000.

Date/timePositionNaut miles runAvg speedWind from/ knotsBaromVisibWave heightAir tempDewpointWater temp
2016-Dec-11 02:33N 46°12' W 002°09'1 0.2
2016-Dec-10 22:29N 46°12' W 002°07'0 0.0
2016-Dec-10 21:12N 46°12' W 002°07'0 0.1
2016-Dec-10 20:32N 46°12' W 002°08'0 0.1
2016-Dec-10 19:29N 46°12' W 002°08'0 0.1
2016-Dec-10 17:19N 46°12' W 002°08'1 1.7
2016-Dec-10 16:32N 46°11' W 002°09'1 0.7
2016-Dec-10 15:30N 46°10' W 002°10'3 0.8
2016-Dec-10 12:07N 46°12' W 002°07'2 1.1
2016-Dec-10 10:33N 46°12' W 002°09'2 0.9
2016-Dec-10 08:31N 46°13' W 002°07'2 0.7
2016-Dec-10 05:27N 46°11' W 002°08'0 0.2
2016-Dec-10 03:17N 46°11' W 002°07'0 0.5
2016-Dec-10 02:28N 46°11' W 002°07'0 0.1
2016-Dec-10 01:30N 46°11' W 002°07'0 0.1
2016-Dec-09 23:33N 46°11' W 002°06'0 0.0
2016-Dec-09 11:26N 46°11' W 002°07'1 0.7
2016-Dec-09 10:16N 46°12' W 002°07'1 0.6
2016-Dec-09 09:07N 46°11' W 002°07'1 2.4
2016-Dec-09 08:33N 46°13' W 002°07'1 0.9
2016-Dec-09 07:24N 46°12' W 002°08'1 0.4
2016-Dec-09 05:30N 46°12' W 002°07'0 0.4
2016-Dec-09 04:33N 46°12' W 002°07'1 1.4
2016-Dec-09 03:34N 46°11' W 002°07'0 0.3
2016-Dec-09 02:33N 46°11' W 002°07'3 3.3
2016-Dec-09 01:33N 46°14' W 002°05'8 7.8
2016-Dec-09 00:33N 46°20' W 001°58'7 7.5
2016-Dec-08 23:33N 46°25' W 001°51'5 5.1
2016-Dec-08 22:33N 46°30' W 001°47'0 0.0
2016-Dec-08 21:33N 46°30' W 001°47'0 0.0
2016-Dec-08 20:33N 46°30' W 001°47'0 0.0
2016-Dec-08 19:33N 46°30' W 001°47'0 0.0
2016-Dec-08 18:33N 46°30' W 001°47'0 0.1
2016-Dec-08 17:33N 46°30' W 001°47'4 3.6
2016-Dec-08 16:33N 46°27' W 001°49'9 8.8
2016-Dec-08 15:34N 46°20' W 001°58'11 0.4
2016-Dec-07 10:15N 46°12' W 002°08'0 0.1
2016-Dec-07 08:16N 46°12' W 002°09'1 0.1
2016-Dec-06 21:33N 46°11' W 002°07'0 0.0
2016-Dec-06 20:33N 46°11' W 002°07'14 0.7
2016-Dec-06 02:12N 46°21' W 001°53'6 8.6
2016-Dec-06 01:33N 46°26' W 001°49'4 4.1
2016-Dec-06 00:34N 46°30' W 001°47'0 0.0
2016-Dec-05 23:33N 46°30' W 001°47'0 0.1
2016-Dec-05 22:33N 46°30' W 001°48'0 0.0
2016-Dec-05 21:33N 46°30' W 001°48'0 0.0
2016-Dec-05 20:33N 46°30' W 001°48'0 0.0
2016-Dec-05 19:33N 46°30' W 001°48'0 0.0
2016-Dec-05 18:33N 46°30' W 001°48'0 0.0
2016-Dec-05 17:33N 46°30' W 001°48'0 0.0
2016-Dec-05 16:33N 46°30' W 001°48'0 0.0
2016-Dec-05 15:33N 46°30' W 001°48'0 0.0
2016-Dec-05 14:33N 46°30' W 001°48'0 0.0
2016-Dec-05 13:33N 46°30' W 001°48'0 0.0
2016-Dec-05 12:33N 46°30' W 001°48'0 0.0
2016-Dec-05 11:33N 46°30' W 001°48'0 0.0
2016-Dec-05 10:33N 46°30' W 001°48'0 0.0
2016-Dec-05 09:28N 46°30' W 001°48'0 0.0
2016-Dec-05 08:33N 46°30' W 001°48'0 0.0
2016-Dec-05 07:33N 46°30' W 001°48'0 0.0
2016-Dec-05 06:33N 46°30' W 001°48'0 0.0
2016-Dec-05 05:33N 46°30' W 001°48'0 0.0
2016-Dec-05 04:33N 46°30' W 001°48'0 0.0
2016-Dec-05 03:33N 46°30' W 001°48'0 0.0
2016-Dec-05 02:33N 46°30' W 001°48'0 0.0
2016-Dec-05 01:34N 46°30' W 001°48'0 0.0
2016-Dec-05 00:33N 46°30' W 001°48'0 0.0
2016-Dec-04 23:33N 46°30' W 001°48'0 0.1
2016-Dec-04 22:34N 46°30' W 001°47'0 0.2
2016-Dec-04 21:33N 46°30' W 001°47'3 3.1
2016-Dec-04 20:33N 46°27' W 001°49'9 8.8
2016-Dec-04 19:33N 46°21' W 001°58'  
2016-Dec-02 07:29N 46°12' W 002°09'1 0.1
2016-Dec-01 22:03N 46°11' W 002°10'0 0.0
2016-Dec-01 21:31N 46°11' W 002°10'0 0.0
2016-Dec-01 20:14N 46°11' W 002°10'0 0.0
2016-Dec-01 19:28N 46°11' W 002°10'  

Dump ship's entire track history